createdAt,value
2022-08-31T00:00:09.867Z,8.20
2022-08-31T00:02:55.422Z,8.40
2022-08-31T00:05:22.414Z,6.45
2022-08-31T00:07:49.283Z,9.77
2022-08-31T00:10:18.709Z,6.32
2022-08-31T00:12:48.906Z,6.05
2022-08-31T00:15:19.869Z,4.75
2022-08-31T00:17:49.264Z,6.68
2022-08-31T00:20:32.274Z,4.43
2022-08-31T00:23:05.649Z,4.90
2022-08-31T00:25:33.828Z,5.57
2022-08-31T00:28:00.847Z,7.82
2022-08-31T00:30:27.973Z,9.35
2022-08-31T00:32:54.871Z,182.65
2022-08-31T00:35:29.907Z,222.88
2022-08-31T00:37:57.207Z,119.07
2022-08-31T00:40:25.133Z,230.45
2022-08-31T00:42:52.101Z,175.65
2022-08-31T00:45:19.284Z,241.63
2022-08-31T00:47:46.105Z,189.05
2022-08-31T00:50:15.763Z,175.43
2022-08-31T00:52:48.294Z,8.32
2022-08-31T00:55:22.938Z,5.38
2022-08-31T00:57:53.606Z,9.25
2022-08-31T01:00:24.080Z,9.38
2022-08-31T01:02:51.507Z,4.30
2022-08-31T01:05:19.472Z,4.85
2022-08-31T01:07:47.982Z,7.53
2022-08-31T01:10:16.913Z,8.52
2022-08-31T01:12:46.175Z,5.38
2022-08-31T01:15:14.804Z,7.65
2022-08-31T01:17:43.877Z,5.47
2022-08-31T01:20:37.788Z,5.30
2022-08-31T01:23:29.061Z,6.28
2022-08-31T01:25:57.695Z,6.10
2022-08-31T01:28:25.867Z,4.00
2022-08-31T01:31:04.122Z,7.40
2022-08-31T01:33:31.791Z,4.03
2022-08-31T01:35:59.801Z,20.60
2022-08-31T01:38:27.725Z,189.30
2022-08-31T01:40:57.573Z,148.43
2022-08-31T01:43:25.145Z,139.98
2022-08-31T01:45:52.761Z,210.02
2022-08-31T01:48:21.668Z,242.20
2022-08-31T01:50:48.554Z,265.55
2022-08-31T01:53:15.520Z,270.38
2022-08-31T01:55:42.458Z,249.82
2022-08-31T01:58:09.372Z,145.57
2022-08-31T02:00:36.466Z,114.25
2022-08-31T02:03:05.772Z,56.40
2022-08-31T02:05:32.585Z,78.18
2022-08-31T02:07:59.340Z,168.23
2022-08-31T02:10:26.384Z,170.02
2022-08-31T02:12:53.504Z,80.90
2022-08-31T02:15:20.705Z,91.25
2022-08-31T02:17:47.727Z,74.15
2022-08-31T02:20:19.680Z,85.95
2022-08-31T02:22:48.563Z,204.35
2022-08-31T02:25:16.842Z,112.47
2022-08-31T02:27:44.216Z,165.63
2022-08-31T02:30:15.513Z,202.30
2022-08-31T02:32:42.380Z,190.53
2022-08-31T02:35:09.820Z,9.27
2022-08-31T02:37:37.376Z,11.55
2022-08-31T02:40:12.372Z,4.00
2022-08-31T02:42:52.702Z,4.85
2022-08-31T02:45:21.294Z,3.53
2022-08-31T02:47:48.140Z,6.93
2022-08-31T02:50:15.120Z,5.28
2022-08-31T02:52:41.926Z,6.28
2022-08-31T02:55:08.997Z,7.47
2022-08-31T02:57:35.742Z,15.60
2022-08-31T03:00:02.779Z,23.25
2022-08-31T03:02:31.948Z,14.27
2022-08-31T03:05:01.578Z,100.47
2022-08-31T03:07:28.476Z,16.02
2022-08-31T03:09:55.313Z,112.93
2022-08-31T03:12:22.133Z,110.13
2022-08-31T03:14:48.927Z,26.13
2022-08-31T03:17:15.732Z,74.18
2022-08-31T03:19:42.575Z,9.00
2022-08-31T03:22:09.433Z,38.50
2022-08-31T03:24:36.278Z,58.47
2022-08-31T03:27:03.098Z,108.45
2022-08-31T03:29:29.908Z,97.60
2022-08-31T03:31:56.760Z,14.73
2022-08-31T03:34:23.640Z,15.95
2022-08-31T03:36:50.495Z,59.88
2022-08-31T03:39:17.224Z,44.35
2022-08-31T03:41:44.081Z,16.33
2022-08-31T03:44:10.880Z,39.45
2022-08-31T03:46:37.811Z,36.47
2022-08-31T03:49:06.287Z,14.02
2022-08-31T03:51:33.019Z,71.85
2022-08-31T03:53:59.789Z,70.03
2022-08-31T03:56:26.609Z,63.78
2022-08-31T03:58:54.135Z,124.97
2022-08-31T04:01:21.198Z,11.13
2022-08-31T04:03:48.028Z,10.38
2022-08-31T04:06:15.070Z,13.52
2022-08-31T04:08:41.942Z,114.45
2022-08-31T04:11:13.498Z,21.65
2022-08-31T04:13:41.387Z,3.65
2022-08-31T04:16:12.145Z,3.85
2022-08-31T04:18:43.842Z,2.65
2022-08-31T04:21:24.218Z,1.88
2022-08-31T04:23:52.951Z,1.90
2022-08-31T04:26:37.616Z,2.00
2022-08-31T04:29:08.610Z,3.05
2022-08-31T04:31:38.299Z,3.47
2022-08-31T04:34:05.850Z,1.85
2022-08-31T04:36:33.186Z,2.42
2022-08-31T04:39:02.858Z,2.53
2022-08-31T04:41:32.092Z,2.33
2022-08-31T04:44:00.539Z,3.40
2022-08-31T04:46:28.575Z,4.50
2022-08-31T04:48:56.808Z,3.28
2022-08-31T04:51:33.001Z,4.00
2022-08-31T04:53:59.752Z,3.25
2022-08-31T04:56:30.079Z,3.42
2022-08-31T04:58:59.541Z,2.78
2022-08-31T05:01:29.365Z,1.40
2022-08-31T05:04:04.213Z,1.85
2022-08-31T05:06:32.636Z,3.22
2022-08-31T05:09:05.716Z,2.50
2022-08-31T05:11:32.719Z,4.15
2022-08-31T05:14:01.261Z,2.25
2022-08-31T05:16:30.687Z,2.28
2022-08-31T05:18:58.871Z,3.30
2022-08-31T05:21:29.252Z,2.17
2022-08-31T05:23:58.864Z,3.05
2022-08-31T05:26:31.712Z,2.03
2022-08-31T05:29:00.331Z,5.95
2022-08-31T05:31:29.242Z,3.17
2022-08-31T05:33:56.838Z,2.25
2022-08-31T05:36:24.745Z,2.25
2022-08-31T05:38:57.611Z,3.40
2022-08-31T05:41:28.554Z,4.90
2022-08-31T05:43:55.606Z,3.65
2022-08-31T05:46:22.559Z,4.47
2022-08-31T05:48:50.116Z,3.75
2022-08-31T05:51:18.925Z,2.42
2022-08-31T05:53:46.353Z,7.50
2022-08-31T05:56:18.134Z,7.93
2022-08-31T05:58:47.345Z,13.52
2022-08-31T06:01:16.870Z,5.60
2022-08-31T06:03:44.073Z,8.32
2022-08-31T06:06:12.310Z,8.50
2022-08-31T06:08:40.295Z,5.60
2022-08-31T06:11:13.618Z,5.97
2022-08-31T06:13:40.931Z,5.57
2022-08-31T06:16:09.782Z,5.90
2022-08-31T06:18:49.873Z,5.57
2022-08-31T06:21:21.012Z,6.68
2022-08-31T06:23:50.032Z,7.82
2022-08-31T06:26:19.879Z,6.10
2022-08-31T06:28:49.996Z,7.13
2022-08-31T06:31:23.748Z,6.60
2022-08-31T06:33:51.988Z,6.90
2022-08-31T06:36:21.229Z,6.35
2022-08-31T06:38:48.341Z,14.20
2022-08-31T06:41:24.701Z,7.43
2022-08-31T06:43:51.744Z,11.65
2022-08-31T06:46:20.112Z,10.95
2022-08-31T06:48:48.236Z,10.05
2022-08-31T06:51:15.041Z,18.90
2022-08-31T06:53:45.258Z,15.35
2022-08-31T06:56:20.420Z,5.95
2022-08-31T06:58:53.883Z,7.95
2022-08-31T07:01:35.956Z,12.60
2022-08-31T07:04:08.596Z,5.68
2022-08-31T07:09:05.224Z,6.80
2022-08-31T07:11:35.372Z,7.32
2022-08-31T07:14:03.820Z,8.40
2022-08-31T07:16:30.921Z,5.45
2022-08-31T07:19:03.825Z,6.45
2022-08-31T07:21:36.466Z,7.43
2022-08-31T07:24:06.023Z,5.78
2022-08-31T07:26:36.992Z,51.53
2022-08-31T07:29:06.464Z,114.00
2022-08-31T07:31:43.958Z,45.78
2022-08-31T07:34:12.225Z,11.23
2022-08-31T07:36:59.481Z,9.32
2022-08-31T07:39:46.131Z,23.40
2022-08-31T07:42:16.549Z,29.10
2022-08-31T07:44:53.484Z,6.40
2022-08-31T07:47:22.043Z,11.27
2022-08-31T07:49:52.614Z,41.00
2022-08-31T07:52:21.753Z,41.05
2022-08-31T07:54:53.712Z,109.93
2022-08-31T07:57:22.469Z,259.05
2022-08-31T08:00:01.189Z,155.15
2022-08-31T08:02:29.014Z,85.63
2022-08-31T08:04:55.997Z,121.28
2022-08-31T08:07:22.890Z,474.10
2022-08-31T08:09:49.678Z,125.68
2022-08-31T08:12:19.177Z,55.38
2022-08-31T08:14:49.398Z,79.85
2022-08-31T08:17:16.169Z,254.55
2022-08-31T08:19:42.942Z,206.40
2022-08-31T08:22:09.829Z,160.82
2022-08-31T08:24:36.896Z,198.35
2022-08-31T08:27:05.460Z,86.55
2022-08-31T08:29:32.517Z,206.50
2022-08-31T08:32:00.669Z,129.57
2022-08-31T08:34:32.377Z,16.95
2022-08-31T08:36:59.912Z,5.85
2022-08-31T08:39:27.836Z,3.67
2022-08-31T08:42:00.146Z,4.72
2022-08-31T08:46:58.427Z,3.03
2022-08-31T08:49:53.977Z,2.90
2022-08-31T08:52:43.788Z,3.88
2022-08-31T08:55:16.339Z,4.45
2022-08-31T08:57:46.026Z,6.13
2022-08-31T09:00:24.977Z,4.53
2022-08-31T09:03:02.116Z,3.92
2022-08-31T09:05:40.412Z,13.60
2022-08-31T09:08:33.616Z,11.93
2022-08-31T09:11:19.195Z,6.88
2022-08-31T09:14:06.240Z,3.63
2022-08-31T09:16:40.879Z,4.82
2022-08-31T09:19:19.242Z,4.15
2022-08-31T09:21:53.185Z,4.78
2022-08-31T09:24:23.384Z,20.77
2022-08-31T09:26:55.879Z,9.85
2022-08-31T09:29:27.145Z,5.15
2022-08-31T09:32:10.016Z,4.00
2022-08-31T09:34:41.143Z,3.15
2022-08-31T09:37:28.868Z,3.90
2022-08-31T09:39:56.701Z,3.58
2022-08-31T09:42:33.659Z,4.70
2022-08-31T09:45:04.142Z,3.53
2022-08-31T09:47:52.351Z,2.75
2022-08-31T09:50:32.275Z,3.47
2022-08-31T09:53:33.308Z,4.72
2022-08-31T09:56:16.720Z,5.97
2022-08-31T09:58:45.788Z,5.45
2022-08-31T10:01:18.090Z,5.15
2022-08-31T10:06:34.817Z,6.15
2022-08-31T10:09:04.533Z,1.60
2022-08-31T10:11:35.170Z,1.60
2022-08-31T10:14:29.494Z,1.60
2022-08-31T10:17:13.090Z,1.40
2022-08-31T10:20:07.597Z,1.75
2022-08-31T10:22:47.113Z,1.23
2022-08-31T10:25:18.510Z,1.63
2022-08-31T10:27:49.582Z,1.40
2022-08-31T10:30:42.645Z,1.27
2022-08-31T10:33:20.699Z,1.63
2022-08-31T10:35:55.157Z,1.52
2022-08-31T10:38:32.475Z,1.40
2022-08-31T10:41:17.369Z,1.35
2022-08-31T10:43:51.086Z,1.75
2022-08-31T10:46:18.142Z,1.25
2022-08-31T10:48:54.707Z,1.65
2022-08-31T10:51:30.811Z,1.52
2022-08-31T10:54:16.956Z,1.20
2022-08-31T10:57:21.721Z,1.33
2022-08-31T11:00:08.078Z,1.42
2022-08-31T11:02:48.420Z,1.60
2022-08-31T11:05:50.589Z,6.85
2022-08-31T11:08:23.843Z,1.40
2022-08-31T11:10:55.410Z,2.00
2022-08-31T11:13:49.597Z,3.60
2022-08-31T11:16:38.709Z,3.78
2022-08-31T11:19:26.601Z,2.67
2022-08-31T11:21:59.410Z,1.90
2022-08-31T11:24:39.099Z,1.83
2022-08-31T11:27:11.742Z,2.80
2022-08-31T11:29:43.786Z,1.83
2022-08-31T11:32:25.983Z,2.45
2022-08-31T11:34:58.860Z,1.88
2022-08-31T11:37:54.563Z,1.92
2022-08-31T11:40:43.565Z,3.38
2022-08-31T11:43:13.959Z,7.13
2022-08-31T11:45:42.486Z,6.93
2022-08-31T11:48:59.121Z,48.83
2022-08-31T11:51:41.669Z,12.15
2022-08-31T11:54:15.540Z,14.00
2022-08-31T11:56:47.602Z,26.15
2022-08-31T11:59:34.192Z,31.73
2022-08-31T12:02:21.536Z,44.80
2022-08-31T12:05:02.908Z,52.75
2022-08-31T12:07:35.813Z,12.20
2022-08-31T12:11:02.765Z,64.38
2022-08-31T12:13:51.990Z,127.30
2022-08-31T12:16:52.168Z,103.20
2022-08-31T12:19:57.816Z,23.13
2022-08-31T12:23:04.865Z,41.88
2022-08-31T12:25:34.605Z,216.48
2022-08-31T12:28:31.728Z,99.53
2022-08-31T12:31:05.360Z,55.33
2022-08-31T12:33:34.003Z,137.05
2022-08-31T12:36:13.197Z,10.82
2022-08-31T12:38:40.335Z,10.05
2022-08-31T12:41:10.774Z,18.92
2022-08-31T12:43:49.249Z,36.95
2022-08-31T12:46:18.855Z,21.50
2022-08-31T12:49:06.003Z,10.70
2022-08-31T12:51:54.225Z,102.32
2022-08-31T12:54:42.500Z,253.55
2022-08-31T12:57:27.006Z,350.85
2022-08-31T13:00:26.291Z,290.95
2022-08-31T13:03:00.310Z,8.68
2022-08-31T13:05:36.684Z,26.40
2022-08-31T13:08:22.887Z,36.38
2022-08-31T13:10:49.944Z,12.10
2022-08-31T13:13:28.598Z,100.20
2022-08-31T13:16:04.601Z,829.45
2022-08-31T13:18:31.602Z,765.83
2022-08-31T13:21:05.463Z,374.25
2022-08-31T13:23:38.571Z,332.90
2022-08-31T13:26:19.972Z,152.38
2022-08-31T13:28:58.675Z,208.02
2022-08-31T13:31:29.007Z,97.53
2022-08-31T13:34:07.288Z,266.92
2022-08-31T13:36:41.745Z,842.20
2022-08-31T13:39:20.999Z,788.17
2022-08-31T13:42:10.743Z,583.95
2022-08-31T13:44:42.360Z,344.15
2022-08-31T13:47:28.998Z,284.30
2022-08-31T13:50:07.236Z,467.58
2022-08-31T13:52:35.697Z,455.42
2022-08-31T13:55:12.874Z,460.88
2022-08-31T13:57:41.719Z,800.33
2022-08-31T14:00:23.671Z,743.63
2022-08-31T14:02:50.714Z,99.68
2022-08-31T14:05:35.778Z,106.35
2022-08-31T14:08:04.384Z,54.85
2022-08-31T14:10:35.169Z,72.53
2022-08-31T14:13:04.634Z,81.30
2022-08-31T14:15:39.207Z,206.63
2022-08-31T14:18:25.734Z,553.55
2022-08-31T14:21:26.381Z,459.27
2022-08-31T14:24:03.198Z,238.48
2022-08-31T14:26:36.818Z,168.85
2022-08-31T14:29:10.138Z,81.57
2022-08-31T14:31:40.121Z,66.93
2022-08-31T14:34:20.148Z,91.18
2022-08-31T14:36:55.767Z,64.57
2022-08-31T14:39:38.961Z,41.58
2022-08-31T14:42:18.600Z,84.30
2022-08-31T14:44:59.720Z,147.65
2022-08-31T14:47:29.024Z,82.53
2022-08-31T14:50:05.374Z,91.90
2022-08-31T14:52:44.582Z,46.35
2022-08-31T14:55:13.326Z,79.15
2022-08-31T14:57:45.664Z,397.85
2022-08-31T15:00:23.110Z,22.95
2022-08-31T15:02:53.386Z,6.32
2022-08-31T15:05:23.382Z,7.50
2022-08-31T15:07:53.014Z,26.42
2022-08-31T15:10:24.269Z,82.78
2022-08-31T15:12:52.508Z,75.97
2022-08-31T15:15:20.860Z,41.92
2022-08-31T15:17:50.591Z,41.83
2022-08-31T15:20:19.667Z,34.08
2022-08-31T15:22:47.833Z,262.33
2022-08-31T15:25:15.309Z,229.30
2022-08-31T15:27:44.446Z,133.10
2022-08-31T15:30:14.682Z,56.80
2022-08-31T15:32:46.752Z,370.92
2022-08-31T15:37:58.745Z,530.75
2022-08-31T15:40:35.510Z,56.83
2022-08-31T15:43:09.352Z,11.73
2022-08-31T15:45:36.429Z,247.45
2022-08-31T15:48:22.575Z,8.57
2022-08-31T15:50:53.638Z,5.75
2022-08-31T15:53:23.763Z,1.35
2022-08-31T15:55:51.726Z,1.00
2022-08-31T15:58:24.445Z,1.90
2022-08-31T16:00:51.972Z,1.45
2022-08-31T16:03:18.844Z,1.65
2022-08-31T16:05:46.444Z,1.23
2022-08-31T16:08:14.138Z,1.33
2022-08-31T16:10:46.207Z,1.10
2022-08-31T16:15:40.360Z,0.90
2022-08-31T16:18:07.996Z,0.80
2022-08-31T16:20:34.937Z,1.02
2022-08-31T16:23:03.040Z,1.20
2022-08-31T16:25:47.617Z,3.00
2022-08-31T16:28:16.321Z,1.20
2022-08-31T16:30:44.402Z,1.00
2022-08-31T16:33:12.147Z,1.10
2022-08-31T16:35:39.602Z,1.02
2022-08-31T16:38:07.112Z,1.02
2022-08-31T16:40:35.402Z,1.50
2022-08-31T16:43:02.946Z,1.13
2022-08-31T16:45:29.966Z,1.00
2022-08-31T16:48:16.821Z,0.90
2022-08-31T16:50:47.582Z,1.20
2022-08-31T16:53:16.330Z,1.08
2022-08-31T16:55:45.017Z,2.58
2022-08-31T16:58:24.878Z,1.88
2022-08-31T17:01:13.228Z,1.00
2022-08-31T17:03:43.897Z,0.90
2022-08-31T17:06:11.035Z,1.10
2022-08-31T17:08:41.278Z,0.90
2022-08-31T17:11:32.087Z,1.08
2022-08-31T17:14:01.000Z,1.08
2022-08-31T17:16:35.650Z,0.88
2022-08-31T17:19:07.502Z,1.30
2022-08-31T17:21:37.905Z,2.45
2022-08-31T17:24:09.462Z,1.52
2022-08-31T17:26:38.758Z,2.28
2022-08-31T17:29:06.925Z,2.97
2022-08-31T17:31:37.276Z,1.23
2022-08-31T17:34:04.148Z,1.25
2022-08-31T17:36:36.573Z,1.10
2022-08-31T17:39:04.371Z,9.15
2022-08-31T17:41:31.202Z,1.35
2022-08-31T17:43:59.020Z,4.30
2022-08-31T17:46:27.164Z,3.55
2022-08-31T17:48:56.033Z,2.55
2022-08-31T17:51:28.936Z,2.35
2022-08-31T17:54:12.150Z,2.15
2022-08-31T17:56:47.456Z,1.67
2022-08-31T17:59:20.994Z,4.90
2022-08-31T18:01:51.400Z,2.47
2022-08-31T18:04:20.222Z,2.63
2022-08-31T18:06:48.014Z,1.20
2022-08-31T18:09:17.500Z,0.93
2022-08-31T18:11:47.773Z,1.33
2022-08-31T18:14:16.196Z,1.55
2022-08-31T18:16:45.168Z,1.08
2022-08-31T18:19:12.790Z,1.15
2022-08-31T18:21:39.613Z,1.13
2022-08-31T18:24:07.167Z,1.00
2022-08-31T18:26:36.846Z,1.15
2022-08-31T18:29:05.888Z,1.00
2022-08-31T18:31:33.377Z,1.00
2022-08-31T18:34:02.104Z,0.73
2022-08-31T18:36:30.068Z,1.00
2022-08-31T18:38:59.453Z,1.10
2022-08-31T18:41:46.716Z,1.00
2022-08-31T18:44:33.445Z,1.23
2022-08-31T18:47:06.424Z,1.00
2022-08-31T18:49:38.679Z,1.08
2022-08-31T18:54:36.600Z,1.48
2022-08-31T18:57:03.442Z,2.78
2022-08-31T18:59:30.307Z,9.35
2022-08-31T19:01:57.707Z,1.25
2022-08-31T19:04:24.618Z,0.95
2022-08-31T19:06:52.014Z,1.30
2022-08-31T19:09:18.868Z,1.25
2022-08-31T19:11:51.342Z,1.13
2022-08-31T19:14:20.520Z,1.17
2022-08-31T19:16:51.359Z,1.13
2022-08-31T19:19:31.681Z,1.38
2022-08-31T19:21:58.567Z,1.00
2022-08-31T19:24:25.438Z,1.08
2022-08-31T19:26:55.371Z,1.23
2022-08-31T19:29:26.638Z,1.23
2022-08-31T19:31:55.614Z,1.10
2022-08-31T19:34:29.326Z,1.02
2022-08-31T19:36:57.877Z,1.30
2022-08-31T19:39:27.840Z,0.93
2022-08-31T19:41:58.157Z,1.17
2022-08-31T19:44:28.064Z,0.90
2022-08-31T19:46:56.184Z,1.20
2022-08-31T19:49:24.063Z,1.35
2022-08-31T19:51:58.223Z,1.15
2022-08-31T19:54:27.219Z,1.10
2022-08-31T19:56:54.463Z,1.00
2022-08-31T19:59:24.087Z,1.30
2022-08-31T20:01:54.337Z,1.25
2022-08-31T20:04:24.555Z,1.10
2022-08-31T20:06:52.158Z,3.83
2022-08-31T20:09:20.166Z,0.90
2022-08-31T20:11:50.256Z,1.40
2022-08-31T20:14:17.986Z,1.20
2022-08-31T20:16:45.712Z,0.98
2022-08-31T20:19:18.846Z,1.23
2022-08-31T20:21:53.040Z,1.10
2022-08-31T20:24:24.331Z,1.05
2022-08-31T20:26:52.317Z,0.95
2022-08-31T20:29:20.926Z,1.25
2022-08-31T20:31:51.017Z,1.23
2022-08-31T20:34:21.729Z,1.10
2022-08-31T20:36:51.833Z,1.25
2022-08-31T20:39:20.003Z,1.10
2022-08-31T20:41:49.425Z,1.13
2022-08-31T20:44:26.110Z,1.30
2022-08-31T20:47:14.758Z,1.38
2022-08-31T20:49:44.563Z,1.20
2022-08-31T20:52:13.876Z,1.00
2022-08-31T20:54:43.039Z,1.15
2022-08-31T20:57:11.121Z,1.25
2022-08-31T20:59:38.117Z,1.10
2022-08-31T21:02:07.038Z,1.00
2022-08-31T21:04:38.330Z,1.23
2022-08-31T21:07:06.511Z,1.10
2022-08-31T21:09:33.754Z,1.15
2022-08-31T21:12:01.272Z,1.75
2022-08-31T21:14:29.124Z,1.10
2022-08-31T21:16:56.660Z,0.90
2022-08-31T21:19:24.477Z,1.17
2022-08-31T21:21:53.713Z,1.33
2022-08-31T21:24:22.045Z,1.20
2022-08-31T21:26:56.118Z,1.27
2022-08-31T21:29:22.932Z,1.50
2022-08-31T21:31:58.326Z,1.05
2022-08-31T21:34:29.586Z,1.13
2022-08-31T21:36:56.447Z,1.23
2022-08-31T21:39:23.701Z,1.10
2022-08-31T21:41:50.894Z,1.52
2022-08-31T21:44:20.758Z,1.42
2022-08-31T21:46:50.804Z,1.30
2022-08-31T21:49:18.688Z,1.35
2022-08-31T21:51:57.245Z,1.17
2022-08-31T21:54:29.266Z,1.10
2022-08-31T21:56:59.370Z,1.48
2022-08-31T21:59:28.479Z,1.30
2022-08-31T22:02:00.283Z,1.58
2022-08-31T22:04:32.404Z,1.40
2022-08-31T22:07:00.106Z,1.67
2022-08-31T22:09:29.125Z,1.42
2022-08-31T22:11:57.790Z,1.60
2022-08-31T22:14:29.367Z,1.50
2022-08-31T22:16:57.923Z,1.40
2022-08-31T22:19:28.412Z,1.70
2022-08-31T22:21:58.958Z,1.50
2022-08-31T22:24:29.698Z,1.30
2022-08-31T22:26:59.426Z,1.17
2022-08-31T22:29:29.929Z,1.38
2022-08-31T22:32:03.341Z,1.52
2022-08-31T22:34:30.301Z,1.38
2022-08-31T22:36:57.365Z,1.40
2022-08-31T22:39:27.577Z,1.40
2022-08-31T22:41:55.905Z,1.48
2022-08-31T22:44:25.725Z,1.33
2022-08-31T22:46:53.768Z,1.20
2022-08-31T22:49:20.632Z,1.58
2022-08-31T22:51:48.707Z,1.40
2022-08-31T22:54:18.327Z,1.42
2022-08-31T22:56:45.788Z,1.38
2022-08-31T22:59:16.691Z,1.23
2022-08-31T23:01:52.262Z,1.20
2022-08-31T23:04:20.378Z,1.50
2022-08-31T23:06:49.297Z,1.50
2022-08-31T23:09:20.867Z,1.25
2022-08-31T23:11:48.884Z,1.48
2022-08-31T23:14:15.685Z,1.27
2022-08-31T23:16:48.532Z,1.17
2022-08-31T23:19:18.293Z,0.95
2022-08-31T23:21:52.567Z,1.20
2022-08-31T23:24:30.227Z,1.10
2022-08-31T23:27:04.177Z,1.13
2022-08-31T23:29:53.108Z,1.40
2022-08-31T23:32:21.998Z,1.33
2022-08-31T23:34:52.664Z,1.45
2022-08-31T23:37:24.124Z,1.30
2022-08-31T23:39:54.373Z,1.40
2022-08-31T23:42:22.206Z,1.40
2022-08-31T23:44:49.551Z,1.40
2022-08-31T23:47:23.319Z,1.23
2022-08-31T23:49:51.540Z,1.10
2022-08-31T23:52:23.953Z,1.50
2022-08-31T23:54:53.810Z,1.20
2022-08-31T23:57:32.369Z,1.20
